createdAt,value
2023-07-22T00:02:08.613Z,16.00
2023-07-22T00:04:36.201Z,15.90
2023-07-22T00:07:03.883Z,15.90
2023-07-22T00:09:34.891Z,15.90
2023-07-22T00:12:02.388Z,15.90
2023-07-22T00:14:29.968Z,15.90
2023-07-22T00:16:57.520Z,15.80
2023-07-22T00:19:25.130Z,15.80
2023-07-22T00:21:53.247Z,15.90
2023-07-22T00:24:23.211Z,15.90
2023-07-22T00:26:53.290Z,15.80
2023-07-22T00:29:20.794Z,15.90
2023-07-22T00:31:48.399Z,15.90
2023-07-22T00:34:15.979Z,15.90
2023-07-22T00:36:45.219Z,15.80
2023-07-22T00:39:16.146Z,15.80
2023-07-22T00:41:47.761Z,15.80
2023-07-22T00:44:15.462Z,15.70
2023-07-22T00:46:44.451Z,15.70
2023-07-22T00:49:15.512Z,15.70
2023-07-22T00:51:44.956Z,15.70
2023-07-22T00:54:12.681Z,15.70
2023-07-22T00:56:42.803Z,15.60
2023-07-22T00:59:11.575Z,15.60
2023-07-22T01:01:39.323Z,15.60
2023-07-22T01:04:07.160Z,15.60
2023-07-22T01:06:36.387Z,15.70
2023-07-22T01:09:08.260Z,15.60
2023-07-22T01:11:35.974Z,15.60
2023-07-22T01:14:04.831Z,15.60
2023-07-22T01:16:33.054Z,15.60
2023-07-22T01:19:00.612Z,15.60
2023-07-22T01:21:29.117Z,15.60
2023-07-22T01:23:58.412Z,15.60
2023-07-22T01:26:26.335Z,15.60
2023-07-22T01:29:03.818Z,15.50
2023-07-22T01:31:31.826Z,15.40
2023-07-22T01:33:59.925Z,15.30
2023-07-22T01:36:27.889Z,15.30
2023-07-22T01:38:55.865Z,15.30
2023-07-22T01:41:24.673Z,15.30
2023-07-22T01:43:53.427Z,15.30
2023-07-22T01:46:21.429Z,15.30
2023-07-22T01:48:49.071Z,15.30
2023-07-22T01:51:16.598Z,15.30
2023-07-22T01:53:45.123Z,15.30
2023-07-22T01:56:13.120Z,15.20
2023-07-22T01:58:41.890Z,15.20
2023-07-22T02:01:10.019Z,15.20
2023-07-22T02:03:37.755Z,15.20
2023-07-22T02:06:07.081Z,15.10
2023-07-22T02:08:37.730Z,15.10
2023-07-22T02:11:07.562Z,15.10
2023-07-22T02:13:36.416Z,15.10
2023-07-22T02:16:06.198Z,15.10
2023-07-22T02:18:35.132Z,15.10
2023-07-22T02:21:05.050Z,15.10
2023-07-22T02:23:32.909Z,15.10
2023-07-22T02:26:02.940Z,15.10
2023-07-22T02:28:33.802Z,15.10
2023-07-22T02:31:08.719Z,15.10
2023-07-22T02:33:38.521Z,15.10
2023-07-22T02:36:06.295Z,15.10
2023-07-22T02:38:36.048Z,15.00
2023-07-22T02:41:07.394Z,15.00
2023-07-22T02:43:40.940Z,15.10
2023-07-22T02:46:11.345Z,15.10
2023-07-22T02:48:40.239Z,15.00
2023-07-22T02:51:09.503Z,15.00
2023-07-22T02:53:40.205Z,15.00
2023-07-22T02:56:08.536Z,15.00
2023-07-22T02:58:37.410Z,15.00
2023-07-22T03:01:06.436Z,15.00
2023-07-22T03:03:38.943Z,15.00
2023-07-22T03:06:06.630Z,15.00
2023-07-22T03:08:33.948Z,15.00
2023-07-22T03:11:01.742Z,15.00
2023-07-22T03:13:33.157Z,15.00
2023-07-22T03:16:00.767Z,15.00
2023-07-22T03:18:31.544Z,15.00
2023-07-22T03:20:59.132Z,14.90
2023-07-22T03:23:26.698Z,14.90
2023-07-22T03:25:55.588Z,14.90
2023-07-22T03:28:23.928Z,14.80
2023-07-22T03:30:51.708Z,14.90
2023-07-22T03:33:20.070Z,14.80
2023-07-22T03:35:47.929Z,14.80
2023-07-22T03:38:15.727Z,14.80
2023-07-22T03:40:45.165Z,14.90
2023-07-22T03:43:13.737Z,14.90
2023-07-22T03:45:41.383Z,14.90
2023-07-22T03:48:10.363Z,14.90
2023-07-22T03:50:37.973Z,15.00
2023-07-22T03:53:09.746Z,14.90
2023-07-22T03:55:37.351Z,15.00
2023-07-22T03:58:05.369Z,15.00
2023-07-22T04:00:33.182Z,14.90
2023-07-22T04:03:00.894Z,14.90
2023-07-22T04:05:28.562Z,14.90
2023-07-22T04:07:56.097Z,14.90
2023-07-22T04:10:23.692Z,14.90
2023-07-22T04:12:52.316Z,14.90
2023-07-22T04:15:19.820Z,14.90
2023-07-22T04:17:48.178Z,14.90
2023-07-22T04:20:17.273Z,14.90
2023-07-22T04:22:46.727Z,14.90
2023-07-22T04:25:14.359Z,14.80
2023-07-22T04:27:42.816Z,14.80
2023-07-22T04:30:10.845Z,14.80
2023-07-22T04:32:40.651Z,14.80
2023-07-22T04:35:08.818Z,14.80
2023-07-22T04:37:36.721Z,14.90
2023-07-22T04:40:07.317Z,14.80
2023-07-22T04:42:34.947Z,14.80
2023-07-22T04:45:03.794Z,14.80
2023-07-22T04:47:31.477Z,14.80
2023-07-22T04:49:59.077Z,14.80
2023-07-22T04:52:26.642Z,14.80
2023-07-22T04:54:57.367Z,14.80
2023-07-22T04:57:24.955Z,14.80
2023-07-22T04:59:52.932Z,14.90
2023-07-22T05:02:21.526Z,14.90
2023-07-22T05:04:49.053Z,14.90
2023-07-22T05:07:16.620Z,15.00
2023-07-22T05:09:44.180Z,15.00
2023-07-22T05:12:20.294Z,15.00
2023-07-22T05:14:47.882Z,15.00
2023-07-22T05:17:16.800Z,15.00
2023-07-22T05:19:44.817Z,15.00
2023-07-22T05:22:12.830Z,15.00
2023-07-22T05:24:40.662Z,15.00
2023-07-22T05:27:10.288Z,15.00
2023-07-22T05:29:41.250Z,15.00
2023-07-22T05:32:27.393Z,15.10
2023-07-22T05:34:59.996Z,15.10
2023-07-22T05:37:27.550Z,15.10
2023-07-22T05:39:55.119Z,15.10
2023-07-22T05:42:26.853Z,15.10
2023-07-22T05:44:56.359Z,15.10
2023-07-22T05:47:24.043Z,15.00
2023-07-22T05:49:51.599Z,15.00
2023-07-22T05:52:20.628Z,15.00
2023-07-22T05:54:48.380Z,15.00
2023-07-22T05:57:16.113Z,15.00
2023-07-22T05:59:44.424Z,15.00
2023-07-22T06:02:15.846Z,15.00
2023-07-22T06:04:43.401Z,15.00
2023-07-22T06:07:10.968Z,15.00
2023-07-22T06:09:40.811Z,15.00
2023-07-22T06:12:08.744Z,15.00
2023-07-22T06:14:39.441Z,15.00
2023-07-22T06:17:07.060Z,15.00
2023-07-22T06:19:34.701Z,15.00
2023-07-22T06:22:02.242Z,15.00
2023-07-22T06:24:29.996Z,15.00
2023-07-22T06:26:58.939Z,15.00
2023-07-22T06:29:26.520Z,15.00
2023-07-22T06:31:54.405Z,15.20
2023-07-22T06:34:22.055Z,15.30
2023-07-22T06:36:50.592Z,15.20
2023-07-22T06:39:18.868Z,15.20
2023-07-22T06:41:46.164Z,15.20
2023-07-22T06:44:13.667Z,15.30
2023-07-22T06:46:41.950Z,15.30
2023-07-22T06:49:10.006Z,15.40
2023-07-22T06:51:37.538Z,15.50
2023-07-22T06:54:05.349Z,15.50
2023-07-22T06:56:33.820Z,15.50
2023-07-22T06:59:03.019Z,15.50
2023-07-22T07:01:30.662Z,15.60
2023-07-22T07:03:58.332Z,15.60
2023-07-22T07:06:26.860Z,15.70
2023-07-22T07:08:54.476Z,15.70
2023-07-22T07:11:22.000Z,15.80
2023-07-22T07:13:50.905Z,15.80
2023-07-22T07:16:31.256Z,15.80
2023-07-22T07:19:01.219Z,15.90
2023-07-22T07:21:29.299Z,15.90
2023-07-22T07:23:58.690Z,16.00
2023-07-22T07:26:26.743Z,16.00
2023-07-22T07:28:54.784Z,16.10
2023-07-22T07:31:22.579Z,16.10
2023-07-22T07:33:50.739Z,16.10
2023-07-22T07:36:19.259Z,16.10
2023-07-22T07:38:46.980Z,16.20
2023-07-22T07:41:15.753Z,16.10
2023-07-22T07:43:43.995Z,16.10
2023-07-22T07:46:24.751Z,16.00
2023-07-22T07:49:01.339Z,16.10
2023-07-22T07:51:30.774Z,16.10
2023-07-22T07:53:59.601Z,16.10
2023-07-22T07:56:27.896Z,16.10
2023-07-22T07:58:56.369Z,16.10
2023-07-22T08:01:24.077Z,16.10
2023-07-22T08:03:51.671Z,16.10
2023-07-22T08:06:20.892Z,16.20
2023-07-22T08:08:48.457Z,16.30
2023-07-22T08:11:16.663Z,16.30
2023-07-22T08:13:45.776Z,16.30
2023-07-22T08:16:14.995Z,16.40
2023-07-22T08:18:43.014Z,16.50
2023-07-22T08:21:11.069Z,16.50
2023-07-22T08:23:38.894Z,16.60
2023-07-22T08:26:07.409Z,16.70
2023-07-22T08:28:35.726Z,16.80
2023-07-22T08:31:06.100Z,17.00
2023-07-22T08:36:04.648Z,17.20
2023-07-22T08:38:32.724Z,17.20
2023-07-22T08:41:00.635Z,17.10
2023-07-22T08:43:29.973Z,17.20
2023-07-22T08:46:01.906Z,17.30
2023-07-22T08:48:34.303Z,17.50
2023-07-22T08:51:06.129Z,17.60
2023-07-22T08:53:34.440Z,17.70
2023-07-22T08:56:02.745Z,17.70
2023-07-22T08:58:31.777Z,17.80
2023-07-22T09:01:00.047Z,17.80
2023-07-22T09:03:27.814Z,17.90
2023-07-22T09:05:57.768Z,18.00
2023-07-22T09:08:25.525Z,18.00
2023-07-22T09:10:54.330Z,18.00
2023-07-22T09:13:23.769Z,18.00
2023-07-22T09:15:52.662Z,18.10
2023-07-22T09:18:20.429Z,18.20
2023-07-22T09:20:48.387Z,18.30
2023-07-22T09:23:16.126Z,18.30
2023-07-22T09:25:44.289Z,18.30
2023-07-22T09:28:12.345Z,18.40
2023-07-22T09:30:41.257Z,18.30
2023-07-22T09:33:24.337Z,18.30
2023-07-22T09:35:56.274Z,18.30
2023-07-22T09:38:26.154Z,18.30
2023-07-22T09:40:54.378Z,18.40
2023-07-22T09:43:24.652Z,18.30
2023-07-22T09:45:52.391Z,18.20
2023-07-22T09:48:23.674Z,18.20
2023-07-22T09:50:58.595Z,18.20
2023-07-22T09:53:26.357Z,18.20
2023-07-22T09:55:54.099Z,18.20
2023-07-22T09:58:25.844Z,18.10
2023-07-22T10:00:53.537Z,18.00
2023-07-22T10:03:22.997Z,18.00
2023-07-22T10:05:54.099Z,17.80
2023-07-22T10:08:24.562Z,17.70
2023-07-22T10:10:55.342Z,17.70
2023-07-22T10:13:23.552Z,17.70
2023-07-22T10:15:51.173Z,17.80
2023-07-22T10:18:21.102Z,17.80
2023-07-22T10:20:50.793Z,17.90
2023-07-22T10:23:19.423Z,18.10
2023-07-22T10:25:49.099Z,18.10
2023-07-22T10:28:17.137Z,18.10
2023-07-22T10:30:44.806Z,18.20
2023-07-22T10:33:12.588Z,18.20
2023-07-22T10:36:01.850Z,18.10
2023-07-22T10:38:30.046Z,18.00
2023-07-22T10:40:57.895Z,17.90
2023-07-22T10:43:26.750Z,17.90
2023-07-22T10:45:58.082Z,18.00
2023-07-22T10:48:35.457Z,18.10
2023-07-22T10:51:14.055Z,18.20
2023-07-22T10:53:47.808Z,18.20
2023-07-22T10:56:20.025Z,18.30
2023-07-22T10:58:47.609Z,18.30
2023-07-22T11:01:30.389Z,18.30
2023-07-22T11:04:18.155Z,18.30
2023-07-22T11:06:45.721Z,18.40
2023-07-22T11:09:29.246Z,18.40
2023-07-22T11:11:59.365Z,18.40
2023-07-22T11:14:32.174Z,18.50
2023-07-22T11:17:09.101Z,18.60
2023-07-22T11:19:36.818Z,18.60
2023-07-22T11:22:05.126Z,18.60
2023-07-22T11:24:38.379Z,18.50
2023-07-22T11:27:10.407Z,18.50
2023-07-22T11:29:38.116Z,18.50
2023-07-22T11:32:06.971Z,18.50
2023-07-22T11:34:37.799Z,18.40
2023-07-22T11:37:07.267Z,18.40
2023-07-22T11:39:37.181Z,18.40
2023-07-22T11:42:06.737Z,18.40
2023-07-22T11:44:34.713Z,18.40
2023-07-22T11:47:05.117Z,18.40
2023-07-22T11:49:41.076Z,18.30
2023-07-22T11:52:16.712Z,18.10
2023-07-22T11:54:45.938Z,17.90
2023-07-22T11:57:22.712Z,17.70
2023-07-22T11:59:54.189Z,17.50
2023-07-22T12:02:24.245Z,17.30
2023-07-22T12:05:03.429Z,17.10
2023-07-22T12:07:33.123Z,16.90
2023-07-22T12:10:03.066Z,16.70
2023-07-22T12:12:37.381Z,16.40
2023-07-22T12:15:22.930Z,16.20
2023-07-22T12:17:58.540Z,16.10
2023-07-22T12:20:31.307Z,16.00
2023-07-22T12:22:59.259Z,16.00
2023-07-22T12:25:27.241Z,15.90
2023-07-22T12:27:54.843Z,15.90
2023-07-22T12:30:22.715Z,15.80
2023-07-22T12:32:50.523Z,15.60
2023-07-22T12:35:18.236Z,15.60
2023-07-22T12:37:45.775Z,15.60
2023-07-22T12:40:13.842Z,15.50
2023-07-22T12:42:42.269Z,15.50
2023-07-22T12:45:11.979Z,15.60
2023-07-22T12:47:40.088Z,15.50
2023-07-22T12:50:09.148Z,15.50
2023-07-22T12:52:39.712Z,15.40
2023-07-22T12:55:07.663Z,15.40
2023-07-22T12:57:35.294Z,15.40
2023-07-22T13:00:05.944Z,15.40
2023-07-22T13:02:34.352Z,15.30
2023-07-22T13:05:02.255Z,15.30
2023-07-22T13:07:29.975Z,15.30
2023-07-22T13:09:59.158Z,15.30
2023-07-22T13:12:29.297Z,15.20
2023-07-22T13:14:59.396Z,15.20
2023-07-22T13:17:27.470Z,15.20
2023-07-22T13:19:55.134Z,15.20
2023-07-22T13:22:23.207Z,15.20
2023-07-22T13:24:51.103Z,15.20
2023-07-22T13:27:20.137Z,15.20
2023-07-22T13:29:47.726Z,15.20
2023-07-22T13:32:15.235Z,15.20
2023-07-22T13:34:44.071Z,15.20
2023-07-22T13:37:11.879Z,15.20
2023-07-22T13:39:40.730Z,15.20
2023-07-22T13:42:09.929Z,15.30
2023-07-22T13:44:40.744Z,15.30
2023-07-22T13:47:08.432Z,15.30
2023-07-22T13:49:36.077Z,15.20
2023-07-22T13:52:03.878Z,15.20
2023-07-22T13:54:32.188Z,15.20
2023-07-22T13:57:00.198Z,15.20
2023-07-22T13:59:28.100Z,15.30
2023-07-22T14:01:58.093Z,15.30
2023-07-22T14:04:25.644Z,15.30
2023-07-22T14:06:53.861Z,15.20
2023-07-22T14:09:21.436Z,15.20
2023-07-22T14:11:49.051Z,15.20
2023-07-22T14:14:17.345Z,15.20
2023-07-22T14:16:44.918Z,15.30
2023-07-22T14:19:12.450Z,15.30
2023-07-22T14:21:39.990Z,15.30
2023-07-22T14:24:07.634Z,15.30
2023-07-22T14:26:35.195Z,15.30
2023-07-22T14:29:03.359Z,15.30
2023-07-22T14:31:31.823Z,15.40
2023-07-22T14:34:01.059Z,15.30
2023-07-22T14:36:29.466Z,15.30
2023-07-22T14:38:58.918Z,15.20
2023-07-22T14:41:27.430Z,15.10
2023-07-22T14:43:55.153Z,15.10
2023-07-22T14:46:25.410Z,15.10
2023-07-22T14:48:53.085Z,15.10
2023-07-22T14:51:20.946Z,15.10
2023-07-22T14:53:49.228Z,15.10
2023-07-22T14:56:16.826Z,15.00
2023-07-22T14:58:44.625Z,15.00
2023-07-22T15:01:12.269Z,15.00
2023-07-22T15:03:41.518Z,15.00
2023-07-22T15:06:10.118Z,15.00
2023-07-22T15:08:37.965Z,15.00
2023-07-22T15:11:05.860Z,15.00
2023-07-22T15:13:33.404Z,14.90
2023-07-22T15:16:01.718Z,15.00
2023-07-22T15:18:29.338Z,15.00
2023-07-22T15:20:56.877Z,15.10
2023-07-22T15:23:25.375Z,15.00
2023-07-22T15:25:54.178Z,15.00
2023-07-22T15:28:21.901Z,15.00
2023-07-22T15:30:49.653Z,15.00
2023-07-22T15:33:17.764Z,15.00
2023-07-22T15:35:46.971Z,15.10
2023-07-22T15:38:15.383Z,15.10
2023-07-22T15:40:42.974Z,15.20
2023-07-22T15:43:10.650Z,15.20
2023-07-22T15:45:38.862Z,15.20
2023-07-22T15:48:06.847Z,15.20
2023-07-22T15:50:35.870Z,15.20
2023-07-22T15:53:07.034Z,15.20
2023-07-22T15:55:34.660Z,15.30
2023-07-22T15:58:02.275Z,15.30
2023-07-22T16:00:30.426Z,15.30
2023-07-22T16:02:59.136Z,15.30
2023-07-22T16:05:26.894Z,15.30
2023-07-22T16:07:54.738Z,15.40
2023-07-22T16:10:23.691Z,15.40
2023-07-22T16:12:51.237Z,15.30
2023-07-22T16:15:20.537Z,15.40
2023-07-22T16:17:49.992Z,15.30
2023-07-22T16:20:19.462Z,15.30
2023-07-22T16:22:47.498Z,15.30
2023-07-22T16:25:15.124Z,15.40
2023-07-22T16:27:42.694Z,15.30
2023-07-22T16:30:10.408Z,15.30
2023-07-22T16:32:44.014Z,15.30
2023-07-22T16:35:14.847Z,15.30
2023-07-22T16:37:42.613Z,15.30
2023-07-22T16:40:13.087Z,15.20
2023-07-22T16:42:42.792Z,15.20
2023-07-22T16:45:10.439Z,15.20
2023-07-22T16:47:38.105Z,15.20
2023-07-22T16:50:06.363Z,15.10
2023-07-22T16:52:34.573Z,15.20
2023-07-22T16:55:02.221Z,15.10
2023-07-22T16:57:31.419Z,15.20
2023-07-22T16:59:59.068Z,15.20
2023-07-22T17:02:27.889Z,15.20
2023-07-22T17:04:57.063Z,15.20
2023-07-22T17:07:24.616Z,15.20
2023-07-22T17:09:52.176Z,15.20
2023-07-22T17:12:20.323Z,15.20
2023-07-22T17:14:47.952Z,15.30
2023-07-22T17:17:16.052Z,15.20
2023-07-22T17:19:43.768Z,15.20
2023-07-22T17:22:11.364Z,15.20
2023-07-22T17:24:39.032Z,15.20
2023-07-22T17:27:07.226Z,15.20
2023-07-22T17:29:39.491Z,15.20
2023-07-22T17:32:10.327Z,15.20
2023-07-22T17:34:37.876Z,15.30
2023-07-22T17:37:05.869Z,15.30
2023-07-22T17:39:33.456Z,15.30
2023-07-22T17:42:01.414Z,15.30
2023-07-22T17:44:29.959Z,15.30
2023-07-22T17:47:00.423Z,15.30
2023-07-22T17:49:28.291Z,15.30
2023-07-22T17:51:55.857Z,15.30
2023-07-22T17:54:23.469Z,15.30
2023-07-22T17:56:51.050Z,15.30
2023-07-22T17:59:18.578Z,15.30
2023-07-22T18:01:46.234Z,15.30
2023-07-22T18:04:13.871Z,15.30
2023-07-22T18:06:41.467Z,15.30
2023-07-22T18:09:09.102Z,15.30
2023-07-22T18:11:36.617Z,15.30
2023-07-22T18:14:04.162Z,15.30
2023-07-22T18:16:31.868Z,15.40
2023-07-22T18:18:59.425Z,15.40
2023-07-22T18:21:27.138Z,15.30
2023-07-22T18:23:54.834Z,15.30
2023-07-22T18:26:22.468Z,15.30
2023-07-22T18:28:51.708Z,15.30
2023-07-22T18:31:24.083Z,15.30
2023-07-22T18:33:51.882Z,15.30
2023-07-22T18:36:19.539Z,15.30
2023-07-22T18:38:47.398Z,15.40
2023-07-22T18:41:14.990Z,15.30
2023-07-22T18:43:42.641Z,15.40
2023-07-22T18:46:16.678Z,15.40
2023-07-22T18:48:45.490Z,15.40
2023-07-22T18:51:13.389Z,15.40
2023-07-22T18:53:40.962Z,15.40
2023-07-22T18:56:08.728Z,15.50
2023-07-22T18:58:36.486Z,15.40
2023-07-22T19:01:04.229Z,15.40
2023-07-22T19:03:32.806Z,15.40
2023-07-22T19:06:00.456Z,15.50
2023-07-22T19:08:28.624Z,15.50
2023-07-22T19:10:56.330Z,15.50
2023-07-22T19:13:25.236Z,15.50
2023-07-22T19:15:54.635Z,15.50
2023-07-22T19:18:22.349Z,15.50
2023-07-22T19:21:01.665Z,15.50
2023-07-22T19:23:30.873Z,15.50
2023-07-22T19:25:58.756Z,15.50
2023-07-22T19:28:26.260Z,15.50
2023-07-22T19:30:56.610Z,15.50
2023-07-22T19:33:25.875Z,15.50
2023-07-22T19:36:04.360Z,15.50
2023-07-22T19:38:33.468Z,15.60
2023-07-22T19:41:09.010Z,15.60
2023-07-22T19:43:38.226Z,15.60
2023-07-22T19:46:08.967Z,15.60
2023-07-22T19:48:36.753Z,15.60
2023-07-22T19:51:06.065Z,15.60
2023-07-22T19:53:33.975Z,15.60
2023-07-22T19:56:04.552Z,15.60
2023-07-22T19:58:34.456Z,15.70
2023-07-22T20:01:04.196Z,15.60
2023-07-22T20:03:36.071Z,15.70
2023-07-22T20:06:05.877Z,15.60
2023-07-22T20:08:33.689Z,15.60
2023-07-22T20:11:01.276Z,15.60
2023-07-22T20:13:28.993Z,15.60
2023-07-22T20:15:56.570Z,15.60
2023-07-22T20:18:24.239Z,15.60
2023-07-22T20:20:51.859Z,15.60
2023-07-22T20:23:19.394Z,15.60
2023-07-22T20:25:46.938Z,15.60
2023-07-22T20:28:14.520Z,15.60
2023-07-22T20:30:43.288Z,15.60
2023-07-22T20:33:10.870Z,15.60
2023-07-22T20:35:38.818Z,15.60
2023-07-22T20:38:06.355Z,15.60
2023-07-22T20:40:33.929Z,15.60
2023-07-22T20:43:01.553Z,15.60
2023-07-22T20:45:29.329Z,15.60
2023-07-22T20:47:57.073Z,15.60
2023-07-22T20:50:24.647Z,15.50
2023-07-22T20:52:52.208Z,15.60
2023-07-22T20:55:19.767Z,15.60
2023-07-22T20:57:47.431Z,15.50
2023-07-22T21:00:15.252Z,15.50
2023-07-22T21:02:43.052Z,15.50
2023-07-22T21:05:10.854Z,15.50
2023-07-22T21:07:40.405Z,15.50
2023-07-22T21:10:09.543Z,15.50
2023-07-22T21:12:37.132Z,15.50
2023-07-22T21:15:05.280Z,15.50
2023-07-22T21:17:32.940Z,15.50
2023-07-22T21:20:00.651Z,15.50
2023-07-22T21:22:28.372Z,15.50
2023-07-22T21:24:56.054Z,15.50
2023-07-22T21:27:31.245Z,15.50
2023-07-22T21:30:06.620Z,15.50
2023-07-22T21:32:34.413Z,15.50
2023-07-22T21:35:01.989Z,15.50
2023-07-22T21:37:29.776Z,15.50
2023-07-22T21:39:57.450Z,15.50
2023-07-22T21:42:28.288Z,15.50
2023-07-22T21:45:00.121Z,15.50
2023-07-22T21:47:29.505Z,15.50
2023-07-22T21:49:57.094Z,15.50
2023-07-22T21:52:25.005Z,15.50
2023-07-22T21:54:52.725Z,15.50
2023-07-22T21:57:20.297Z,15.50
2023-07-22T21:59:47.884Z,15.50
2023-07-22T22:02:16.158Z,15.50
2023-07-22T22:04:43.729Z,15.50
2023-07-22T22:07:11.266Z,15.50
2023-07-22T22:09:39.529Z,15.50
2023-07-22T22:12:07.628Z,15.60
2023-07-22T22:14:35.200Z,15.60
2023-07-22T22:17:03.961Z,15.50
2023-07-22T22:19:31.957Z,15.60
2023-07-22T22:21:59.808Z,15.60
2023-07-22T22:24:29.229Z,15.50
2023-07-22T22:26:57.353Z,15.60
2023-07-22T22:29:26.004Z,15.60
2023-07-22T22:31:53.556Z,15.50
2023-07-22T22:34:21.570Z,15.60
2023-07-22T22:36:49.913Z,15.60
2023-07-22T22:39:17.472Z,15.60
2023-07-22T22:41:44.995Z,15.60
2023-07-22T22:44:12.558Z,15.60
2023-07-22T22:46:40.175Z,15.60
2023-07-22T22:49:07.808Z,15.60
2023-07-22T22:51:35.375Z,15.60
2023-07-22T22:54:03.008Z,15.60
2023-07-22T22:56:30.623Z,15.60
2023-07-22T22:58:58.415Z,15.60
2023-07-22T23:01:26.231Z,15.60
2023-07-22T23:03:54.088Z,15.60
2023-07-22T23:06:21.972Z,15.60
2023-07-22T23:08:49.604Z,15.60
2023-07-22T23:11:19.118Z,15.60
2023-07-22T23:13:48.758Z,15.60
2023-07-22T23:16:17.366Z,15.60
2023-07-22T23:18:46.525Z,15.60
2023-07-22T23:21:16.128Z,15.60
2023-07-22T23:23:44.607Z,15.60
2023-07-22T23:26:12.424Z,15.60
2023-07-22T23:28:40.817Z,15.60
2023-07-22T23:31:08.441Z,15.60
2023-07-22T23:33:36.852Z,15.60
2023-07-22T23:36:07.776Z,15.60
2023-07-22T23:38:35.382Z,15.60
2023-07-22T23:41:03.050Z,15.60
2023-07-22T23:43:31.420Z,15.60
2023-07-22T23:45:59.040Z,15.60
2023-07-22T23:48:27.174Z,15.60
2023-07-22T23:50:55.815Z,15.60
2023-07-22T23:53:23.524Z,15.60
2023-07-22T23:55:51.106Z,15.60
2023-07-22T23:58:18.702Z,15.60
